sensor_id;sensor_type;location;lat;lon;timestamp;temperature;humidity
7588;DHT22;3835;48.850;8.938;2023-08-30T00:02:17;12.30;99.90
7588;DHT22;3835;48.850;8.938;2023-08-30T00:04:45;12.30;99.90
7588;DHT22;3835;48.850;8.938;2023-08-30T00:07:12;12.30;99.90
7588;DHT22;3835;48.850;8.938;2023-08-30T00:09:39;12.30;99.90
7588;DHT22;3835;48.850;8.938;2023-08-30T00:12:06;12.30;99.90
7588;DHT22;3835;48.850;8.938;2023-08-30T00:14:32;12.30;99.90
7588;DHT22;3835;48.850;8.938;2023-08-30T00:17:00;12.30;99.90
7588;DHT22;3835;48.850;8.938;2023-08-30T00:19:27;12.40;99.90
7588;DHT22;3835;48.850;8.938;2023-08-30T00:21:55;12.40;99.90
7588;DHT22;3835;48.850;8.938;2023-08-30T00:24:22;12.40;99.90
7588;DHT22;3835;48.850;8.938;2023-08-30T00:26:49;12.40;99.90
7588;DHT22;3835;48.850;8.938;2023-08-30T00:29:16;12.40;99.90
7588;DHT22;3835;48.850;8.938;2023-08-30T00:31:42;12.40;99.90
7588;DHT22;3835;48.850;8.938;2023-08-30T00:34:09;12.40;99.90
7588;DHT22;3835;48.850;8.938;2023-08-30T00:36:36;12.40;99.90
7588;DHT22;3835;48.850;8.938;2023-08-30T00:39:04;12.40;99.90
7588;DHT22;3835;48.850;8.938;2023-08-30T00:41:31;12.40;99.90
7588;DHT22;3835;48.850;8.938;2023-08-30T00:43:57;12.40;99.90
7588;DHT22;3835;48.850;8.938;2023-08-30T00:46:24;12.40;99.90
7588;DHT22;3835;48.850;8.938;2023-08-30T00:48:51;12.40;99.90
7588;DHT22;3835;48.850;8.938;2023-08-30T00:51:18;12.40;99.90
7588;DHT22;3835;48.850;8.938;2023-08-30T00:53:45;12.30;99.90
7588;DHT22;3835;48.850;8.938;2023-08-30T00:56:14;12.30;99.90
7588;DHT22;3835;48.850;8.938;2023-08-30T00:58:41;12.30;99.90
7588;DHT22;3835;48.850;8.938;2023-08-30T01:01:08;12.30;99.90
7588;DHT22;3835;48.850;8.938;2023-08-30T01:03:35;12.20;99.90
7588;DHT22;3835;48.850;8.938;2023-08-30T01:06:03;12.20;99.90
7588;DHT22;3835;48.850;8.938;2023-08-30T01:08:30;12.20;99.90
7588;DHT22;3835;48.850;8.938;2023-08-30T01:11:01;12.10;99.90
7588;DHT22;3835;48.850;8.938;2023-08-30T01:13:32;12.10;99.90
7588;DHT22;3835;48.850;8.938;2023-08-30T01:16:00;12.10;99.90
7588;DHT22;3835;48.850;8.938;2023-08-30T01:18:30;12.00;99.90
7588;DHT22;3835;48.850;8.938;2023-08-30T01:21:00;12.00;99.90
7588;DHT22;3835;48.850;8.938;2023-08-30T01:23:36;11.90;99.90
7588;DHT22;3835;48.850;8.938;2023-08-30T01:26:11;11.90;99.90
7588;DHT22;3835;48.850;8.938;2023-08-30T01:28:41;11.80;99.90
7588;DHT22;3835;48.850;8.938;2023-08-30T01:31:08;11.70;99.90
7588;DHT22;3835;48.850;8.938;2023-08-30T01:33:37;11.80;99.90
7588;DHT22;3835;48.850;8.938;2023-08-30T01:36:04;11.70;99.90
7588;DHT22;3835;48.850;8.938;2023-08-30T01:38:32;11.70;99.90
7588;DHT22;3835;48.850;8.938;2023-08-30T01:40:59;11.70;99.90
7588;DHT22;3835;48.850;8.938;2023-08-30T01:43:27;11.60;99.90
7588;DHT22;3835;48.850;8.938;2023-08-30T01:45:56;11.70;99.90
7588;DHT22;3835;48.850;8.938;2023-08-30T01:48:24;11.60;99.90
7588;DHT22;3835;48.850;8.938;2023-08-30T01:50:52;11.60;99.90
7588;DHT22;3835;48.850;8.938;2023-08-30T01:53:21;11.50;99.90
7588;DHT22;3835;48.850;8.938;2023-08-30T01:55:48;11.50;99.90
7588;DHT22;3835;48.850;8.938;2023-08-30T01:58:15;11.40;99.90
7588;DHT22;3835;48.850;8.938;2023-08-30T02:00:42;11.40;99.90
7588;DHT22;3835;48.850;8.938;2023-08-30T02:03:11;11.40;99.90
7588;DHT22;3835;48.850;8.938;2023-08-30T02:05:48;11.30;99.90
7588;DHT22;3835;48.850;8.938;2023-08-30T02:08:19;11.30;99.90
7588;DHT22;3835;48.850;8.938;2023-08-30T02:10:52;11.30;99.90
7588;DHT22;3835;48.850;8.938;2023-08-30T02:13:26;11.30;99.90
7588;DHT22;3835;48.850;8.938;2023-08-30T02:15:55;11.30;99.90
7588;DHT22;3835;48.850;8.938;2023-08-30T02:18:24;11.30;99.90
7588;DHT22;3835;48.850;8.938;2023-08-30T02:20:51;11.20;99.90
7588;DHT22;3835;48.850;8.938;2023-08-30T02:23:18;11.30;99.90
7588;DHT22;3835;48.850;8.938;2023-08-30T02:25:45;11.20;99.90
7588;DHT22;3835;48.850;8.938;2023-08-30T02:28:12;11.20;99.90
7588;DHT22;3835;48.850;8.938;2023-08-30T02:30:39;11.20;99.90
7588;DHT22;3835;48.850;8.938;2023-08-30T02:33:06;11.20;99.90
7588;DHT22;3835;48.850;8.938;2023-08-30T02:35:34;11.20;99.90
7588;DHT22;3835;48.850;8.938;2023-08-30T02:38:00;11.20;99.90
7588;DHT22;3835;48.850;8.938;2023-08-30T02:40:30;11.20;99.90
7588;DHT22;3835;48.850;8.938;2023-08-30T02:42:57;11.20;99.90
7588;DHT22;3835;48.850;8.938;2023-08-30T02:45:23;11.30;99.90
7588;DHT22;3835;48.850;8.938;2023-08-30T02:47:50;11.30;99.90
7588;DHT22;3835;48.850;8.938;2023-08-30T02:50:17;11.30;99.90
7588;DHT22;3835;48.850;8.938;2023-08-30T02:52:45;11.30;99.90
7588;DHT22;3835;48.850;8.938;2023-08-30T02:55:11;11.30;99.90
7588;DHT22;3835;48.850;8.938;2023-08-30T02:57:38;11.40;99.90
7588;DHT22;3835;48.850;8.938;2023-08-30T03:00:06;11.40;99.90
7588;DHT22;3835;48.850;8.938;2023-08-30T03:02:34;11.40;99.90
7588;DHT22;3835;48.850;8.938;2023-08-30T03:05:01;11.40;99.90
7588;DHT22;3835;48.850;8.938;2023-08-30T03:07:29;11.50;99.90
7588;DHT22;3835;48.850;8.938;2023-08-30T03:09:58;11.50;99.90
7588;DHT22;3835;48.850;8.938;2023-08-30T03:12:24;11.50;99.90
7588;DHT22;3835;48.850;8.938;2023-08-30T03:14:51;11.80;99.90
7588;DHT22;3835;48.850;8.938;2023-08-30T03:17:18;11.60;99.90
7588;DHT22;3835;48.850;8.938;2023-08-30T03:19:45;11.60;99.90
7588;DHT22;3835;48.850;8.938;2023-08-30T03:22:11;11.50;99.90
7588;DHT22;3835;48.850;8.938;2023-08-30T03:24:38;11.60;99.90
7588;DHT22;3835;48.850;8.938;2023-08-30T03:27:06;11.60;99.90
7588;DHT22;3835;48.850;8.938;2023-08-30T03:29:33;11.60;99.90
7588;DHT22;3835;48.850;8.938;2023-08-30T03:32:00;11.60;99.90
7588;DHT22;3835;48.850;8.938;2023-08-30T03:34:27;11.70;99.90
7588;DHT22;3835;48.850;8.938;2023-08-30T03:36:53;11.60;99.90
7588;DHT22;3835;48.850;8.938;2023-08-30T03:39:20;11.70;99.90
7588;DHT22;3835;48.850;8.938;2023-08-30T03:41:47;11.70;99.90
7588;DHT22;3835;48.850;8.938;2023-08-30T03:44:15;11.70;99.90
7588;DHT22;3835;48.850;8.938;2023-08-30T03:46:42;11.70;99.90
7588;DHT22;3835;48.850;8.938;2023-08-30T03:49:09;11.70;99.90
7588;DHT22;3835;48.850;8.938;2023-08-30T03:51:36;11.70;99.90
7588;DHT22;3835;48.850;8.938;2023-08-30T03:54:03;11.70;99.90
7588;DHT22;3835;48.850;8.938;2023-08-30T03:56:29;11.70;99.90
7588;DHT22;3835;48.850;8.938;2023-08-30T03:58:56;11.70;99.90
7588;DHT22;3835;48.850;8.938;2023-08-30T04:01:24;11.70;99.90
7588;DHT22;3835;48.850;8.938;2023-08-30T04:03:51;11.70;99.90
7588;DHT22;3835;48.850;8.938;2023-08-30T04:06:17;11.70;99.90
7588;DHT22;3835;48.850;8.938;2023-08-30T04:08:44;11.80;99.90
7588;DHT22;3835;48.850;8.938;2023-08-30T04:11:11;11.80;99.90
7588;DHT22;3835;48.850;8.938;2023-08-30T04:13:38;11.80;99.90
7588;DHT22;3835;48.850;8.938;2023-08-30T04:16:04;11.80;99.90
7588;DHT22;3835;48.850;8.938;2023-08-30T04:18:33;11.80;99.90
7588;DHT22;3835;48.850;8.938;2023-08-30T04:20:59;11.80;99.90
7588;DHT22;3835;48.850;8.938;2023-08-30T04:23:27;11.80;99.90
7588;DHT22;3835;48.850;8.938;2023-08-30T04:25:54;11.80;99.90
7588;DHT22;3835;48.850;8.938;2023-08-30T04:28:21;11.80;99.90
7588;DHT22;3835;48.850;8.938;2023-08-30T04:30:48;11.80;99.90
7588;DHT22;3835;48.850;8.938;2023-08-30T04:33:15;11.80;99.90
7588;DHT22;3835;48.850;8.938;2023-08-30T04:35:43;11.70;99.90
7588;DHT22;3835;48.850;8.938;2023-08-30T04:38:11;11.70;99.90
7588;DHT22;3835;48.850;8.938;2023-08-30T04:40:37;11.70;99.90
7588;DHT22;3835;48.850;8.938;2023-08-30T04:43:04;11.70;99.90
7588;DHT22;3835;48.850;8.938;2023-08-30T04:45:31;11.80;99.90
7588;DHT22;3835;48.850;8.938;2023-08-30T04:47:58;11.80;99.90
7588;DHT22;3835;48.850;8.938;2023-08-30T04:50:24;11.80;99.90
7588;DHT22;3835;48.850;8.938;2023-08-30T04:52:52;11.80;99.90
7588;DHT22;3835;48.850;8.938;2023-08-30T04:55:19;11.80;99.90
7588;DHT22;3835;48.850;8.938;2023-08-30T04:57:46;11.90;99.90
7588;DHT22;3835;48.850;8.938;2023-08-30T05:00:13;11.90;99.90
7588;DHT22;3835;48.850;8.938;2023-08-30T05:02:40;12.00;99.90
7588;DHT22;3835;48.850;8.938;2023-08-30T05:05:09;12.00;99.90
7588;DHT22;3835;48.850;8.938;2023-08-30T05:07:36;12.00;99.90
7588;DHT22;3835;48.850;8.938;2023-08-30T05:10:05;12.00;99.90
7588;DHT22;3835;48.850;8.938;2023-08-30T05:12:33;12.10;99.90
7588;DHT22;3835;48.850;8.938;2023-08-30T05:15:00;12.10;99.90
7588;DHT22;3835;48.850;8.938;2023-08-30T05:17:26;12.10;99.90
7588;DHT22;3835;48.850;8.938;2023-08-30T05:19:54;12.20;99.90
7588;DHT22;3835;48.850;8.938;2023-08-30T05:22:20;12.20;99.90
7588;DHT22;3835;48.850;8.938;2023-08-30T05:24:47;12.20;99.90
7588;DHT22;3835;48.850;8.938;2023-08-30T05:27:15;12.30;99.90
7588;DHT22;3835;48.850;8.938;2023-08-30T05:29:43;12.30;99.90
7588;DHT22;3835;48.850;8.938;2023-08-30T05:32:10;12.40;99.90
7588;DHT22;3835;48.850;8.938;2023-08-30T05:34:37;12.40;99.90
7588;DHT22;3835;48.850;8.938;2023-08-30T05:37:04;12.50;99.90
7588;DHT22;3835;48.850;8.938;2023-08-30T05:39:30;12.60;99.90
7588;DHT22;3835;48.850;8.938;2023-08-30T05:41:57;12.60;99.90
7588;DHT22;3835;48.850;8.938;2023-08-30T05:44:25;12.70;99.90
7588;DHT22;3835;48.850;8.938;2023-08-30T05:46:52;12.80;99.90
7588;DHT22;3835;48.850;8.938;2023-08-30T05:49:19;12.90;99.90
7588;DHT22;3835;48.850;8.938;2023-08-30T05:51:46;13.00;99.90
7588;DHT22;3835;48.850;8.938;2023-08-30T05:54:13;13.00;99.90
7588;DHT22;3835;48.850;8.938;2023-08-30T05:56:40;13.10;99.90
7588;DHT22;3835;48.850;8.938;2023-08-30T05:59:07;13.10;99.90
7588;DHT22;3835;48.850;8.938;2023-08-30T06:01:35;13.20;99.90
7588;DHT22;3835;48.850;8.938;2023-08-30T06:04:02;13.30;99.90
7588;DHT22;3835;48.850;8.938;2023-08-30T06:06:30;13.40;99.90
7588;DHT22;3835;48.850;8.938;2023-08-30T06:08:58;13.50;99.90
7588;DHT22;3835;48.850;8.938;2023-08-30T06:11:25;13.50;99.90
7588;DHT22;3835;48.850;8.938;2023-08-30T06:13:52;13.50;99.90
7588;DHT22;3835;48.850;8.938;2023-08-30T06:16:18;13.50;99.90
7588;DHT22;3835;48.850;8.938;2023-08-30T06:18:46;13.50;99.90
7588;DHT22;3835;48.850;8.938;2023-08-30T06:21:13;13.50;99.90
7588;DHT22;3835;48.850;8.938;2023-08-30T06:23:40;13.50;99.90
7588;DHT22;3835;48.850;8.938;2023-08-30T06:26:07;13.60;99.90
7588;DHT22;3835;48.850;8.938;2023-08-30T06:28:34;13.60;99.90
7588;DHT22;3835;48.850;8.938;2023-08-30T06:31:01;13.70;99.90
7588;DHT22;3835;48.850;8.938;2023-08-30T06:33:27;13.70;99.90
7588;DHT22;3835;48.850;8.938;2023-08-30T06:35:56;13.80;99.90
7588;DHT22;3835;48.850;8.938;2023-08-30T06:38:22;13.80;99.90
7588;DHT22;3835;48.850;8.938;2023-08-30T06:40:49;13.80;99.90
7588;DHT22;3835;48.850;8.938;2023-08-30T06:43:16;13.90;99.90
7588;DHT22;3835;48.850;8.938;2023-08-30T06:45:43;14.00;99.90
7588;DHT22;3835;48.850;8.938;2023-08-30T06:48:11;14.00;99.90
7588;DHT22;3835;48.850;8.938;2023-08-30T06:50:37;13.90;99.90
7588;DHT22;3835;48.850;8.938;2023-08-30T06:53:06;14.00;99.90
7588;DHT22;3835;48.850;8.938;2023-08-30T06:55:32;14.30;99.90
7588;DHT22;3835;48.850;8.938;2023-08-30T06:58:01;14.40;99.90
7588;DHT22;3835;48.850;8.938;2023-08-30T07:00:28;14.20;99.90
7588;DHT22;3835;48.850;8.938;2023-08-30T07:02:55;14.20;99.90
7588;DHT22;3835;48.850;8.938;2023-08-30T07:05:22;14.20;99.90
7588;DHT22;3835;48.850;8.938;2023-08-30T07:07:49;14.20;99.90
7588;DHT22;3835;48.850;8.938;2023-08-30T07:10:17;14.20;99.90
7588;DHT22;3835;48.850;8.938;2023-08-30T07:12:44;14.20;99.90
7588;DHT22;3835;48.850;8.938;2023-08-30T07:15:14;14.20;99.90
7588;DHT22;3835;48.850;8.938;2023-08-30T07:17:42;14.40;99.90
7588;DHT22;3835;48.850;8.938;2023-08-30T07:20:09;14.30;99.90
7588;DHT22;3835;48.850;8.938;2023-08-30T07:22:36;14.30;99.90
7588;DHT22;3835;48.850;8.938;2023-08-30T07:25:04;14.30;99.90
7588;DHT22;3835;48.850;8.938;2023-08-30T07:27:32;14.50;99.90
7588;DHT22;3835;48.850;8.938;2023-08-30T07:29:59;14.60;99.90
7588;DHT22;3835;48.850;8.938;2023-08-30T07:32:26;14.70;99.90
7588;DHT22;3835;48.850;8.938;2023-08-30T07:34:53;14.70;99.90
7588;DHT22;3835;48.850;8.938;2023-08-30T07:37:21;14.80;99.90
7588;DHT22;3835;48.850;8.938;2023-08-30T07:39:48;14.90;99.90
7588;DHT22;3835;48.850;8.938;2023-08-30T07:42:15;15.10;99.90
7588;DHT22;3835;48.850;8.938;2023-08-30T07:44:43;15.10;99.90
7588;DHT22;3835;48.850;8.938;2023-08-30T07:47:09;15.20;99.90
7588;DHT22;3835;48.850;8.938;2023-08-30T07:49:36;15.30;99.90
7588;DHT22;3835;48.850;8.938;2023-08-30T07:52:03;15.50;99.90
7588;DHT22;3835;48.850;8.938;2023-08-30T07:54:31;15.60;99.90
7588;DHT22;3835;48.850;8.938;2023-08-30T07:56:58;15.60;99.90
7588;DHT22;3835;48.850;8.938;2023-08-30T07:59:25;15.80;99.90
7588;DHT22;3835;48.850;8.938;2023-08-30T08:01:53;16.20;99.90
7588;DHT22;3835;48.850;8.938;2023-08-30T08:04:20;16.30;99.90
7588;DHT22;3835;48.850;8.938;2023-08-30T08:06:47;16.30;99.90
7588;DHT22;3835;48.850;8.938;2023-08-30T08:09:13;16.40;99.90
7588;DHT22;3835;48.850;8.938;2023-08-30T08:11:41;16.50;99.90
7588;DHT22;3835;48.850;8.938;2023-08-30T08:14:09;16.40;99.90
7588;DHT22;3835;48.850;8.938;2023-08-30T08:16:36;16.50;99.90
7588;DHT22;3835;48.850;8.938;2023-08-30T08:19:04;16.60;99.90
7588;DHT22;3835;48.850;8.938;2023-08-30T08:21:31;16.80;99.90
7588;DHT22;3835;48.850;8.938;2023-08-30T08:23:59;16.70;99.90
7588;DHT22;3835;48.850;8.938;2023-08-30T08:26:28;16.70;99.90
7588;DHT22;3835;48.850;8.938;2023-08-30T08:28:57;16.90;99.90
7588;DHT22;3835;48.850;8.938;2023-08-30T08:31:25;16.90;99.90
7588;DHT22;3835;48.850;8.938;2023-08-30T08:34:09;17.20;99.90
7588;DHT22;3835;48.850;8.938;2023-08-30T08:36:39;17.30;99.90
7588;DHT22;3835;48.850;8.938;2023-08-30T08:39:07;17.40;99.90
7588;DHT22;3835;48.850;8.938;2023-08-30T08:41:38;17.50;99.90
7588;DHT22;3835;48.850;8.938;2023-08-30T08:44:07;17.50;99.90
7588;DHT22;3835;48.850;8.938;2023-08-30T08:46:36;17.40;99.90
7588;DHT22;3835;48.850;8.938;2023-08-30T08:49:09;17.60;99.90
7588;DHT22;3835;48.850;8.938;2023-08-30T08:51:39;17.50;99.90
7588;DHT22;3835;48.850;8.938;2023-08-30T08:54:06;17.70;99.90
7588;DHT22;3835;48.850;8.938;2023-08-30T08:56:35;17.70;99.90
7588;DHT22;3835;48.850;8.938;2023-08-30T08:59:03;17.80;99.90
7588;DHT22;3835;48.850;8.938;2023-08-30T09:01:31;18.00;99.90
7588;DHT22;3835;48.850;8.938;2023-08-30T09:04:03;18.10;99.90
7588;DHT22;3835;48.850;8.938;2023-08-30T09:06:32;18.40;99.90
7588;DHT22;3835;48.850;8.938;2023-08-30T09:08:59;18.50;99.90
7588;DHT22;3835;48.850;8.938;2023-08-30T09:11:26;18.40;99.90
7588;DHT22;3835;48.850;8.938;2023-08-30T09:13:53;18.40;99.90
7588;DHT22;3835;48.850;8.938;2023-08-30T09:16:19;18.50;99.90
7588;DHT22;3835;48.850;8.938;2023-08-30T09:18:57;18.60;99.90
7588;DHT22;3835;48.850;8.938;2023-08-30T09:21:24;18.60;99.90
7588;DHT22;3835;48.850;8.938;2023-08-30T09:23:58;18.90;99.90
7588;DHT22;3835;48.850;8.938;2023-08-30T09:26:25;19.00;99.90
7588;DHT22;3835;48.850;8.938;2023-08-30T09:28:53;19.20;99.90
7588;DHT22;3835;48.850;8.938;2023-08-30T09:31:20;19.10;99.90
7588;DHT22;3835;48.850;8.938;2023-08-30T09:33:47;19.10;99.90
7588;DHT22;3835;48.850;8.938;2023-08-30T09:36:14;19.30;99.90
7588;DHT22;3835;48.850;8.938;2023-08-30T09:38:47;19.30;99.90
7588;DHT22;3835;48.850;8.938;2023-08-30T09:41:16;19.40;99.90
7588;DHT22;3835;48.850;8.938;2023-08-30T09:43:43;19.10;99.90
7588;DHT22;3835;48.850;8.938;2023-08-30T09:46:10;19.00;99.90
7588;DHT22;3835;48.850;8.938;2023-08-30T09:48:37;19.20;99.90
7588;DHT22;3835;48.850;8.938;2023-08-30T09:51:07;19.30;99.90
7588;DHT22;3835;48.850;8.938;2023-08-30T09:53:40;19.60;99.90
7588;DHT22;3835;48.850;8.938;2023-08-30T09:56:11;19.70;99.90
7588;DHT22;3835;48.850;8.938;2023-08-30T09:58:41;19.90;99.90
7588;DHT22;3835;48.850;8.938;2023-08-30T10:01:09;19.90;99.90
7588;DHT22;3835;48.850;8.938;2023-08-30T10:03:36;19.90;99.90
7588;DHT22;3835;48.850;8.938;2023-08-30T10:06:03;20.20;99.90
7588;DHT22;3835;48.850;8.938;2023-08-30T10:08:32;20.30;99.90
7588;DHT22;3835;48.850;8.938;2023-08-30T10:11:02;20.60;99.90
7588;DHT22;3835;48.850;8.938;2023-08-30T10:13:29;20.80;99.90
7588;DHT22;3835;48.850;8.938;2023-08-30T10:16:01;20.80;99.90
7588;DHT22;3835;48.850;8.938;2023-08-30T10:18:32;20.50;99.90
7588;DHT22;3835;48.850;8.938;2023-08-30T10:21:02;20.40;99.90
7588;DHT22;3835;48.850;8.938;2023-08-30T10:23:32;19.80;99.90
7588;DHT22;3835;48.850;8.938;2023-08-30T10:26:01;19.00;99.90
7588;DHT22;3835;48.850;8.938;2023-08-30T10:28:29;18.60;99.90
7588;DHT22;3835;48.850;8.938;2023-08-30T10:30:58;18.10;99.90
7588;DHT22;3835;48.850;8.938;2023-08-30T10:33:25;17.60;99.90
7588;DHT22;3835;48.850;8.938;2023-08-30T10:35:52;17.30;99.90
7588;DHT22;3835;48.850;8.938;2023-08-30T10:38:25;17.20;99.90
7588;DHT22;3835;48.850;8.938;2023-08-30T10:40:53;16.90;99.90
7588;DHT22;3835;48.850;8.938;2023-08-30T10:43:28;16.70;99.90
7588;DHT22;3835;48.850;8.938;2023-08-30T10:46:04;16.70;99.90
7588;DHT22;3835;48.850;8.938;2023-08-30T10:48:36;16.80;99.90
7588;DHT22;3835;48.850;8.938;2023-08-30T10:51:04;17.00;99.90
7588;DHT22;3835;48.850;8.938;2023-08-30T10:53:32;17.30;99.90
7588;DHT22;3835;48.850;8.938;2023-08-30T10:56:03;17.40;99.90
7588;DHT22;3835;48.850;8.938;2023-08-30T10:58:40;17.60;99.90
7588;DHT22;3835;48.850;8.938;2023-08-30T11:01:09;17.60;99.90
7588;DHT22;3835;48.850;8.938;2023-08-30T11:03:37;17.60;99.90
7588;DHT22;3835;48.850;8.938;2023-08-30T11:06:04;17.70;99.90
7588;DHT22;3835;48.850;8.938;2023-08-30T11:08:31;17.90;99.90
7588;DHT22;3835;48.850;8.938;2023-08-30T11:11:03;18.30;99.90
7588;DHT22;3835;48.850;8.938;2023-08-30T11:13:31;18.50;99.90
7588;DHT22;3835;48.850;8.938;2023-08-30T11:16:00;18.60;99.90
7588;DHT22;3835;48.850;8.938;2023-08-30T11:18:29;18.60;99.90
7588;DHT22;3835;48.850;8.938;2023-08-30T11:20:59;18.50;99.90
7588;DHT22;3835;48.850;8.938;2023-08-30T11:23:26;18.60;99.90
7588;DHT22;3835;48.850;8.938;2023-08-30T11:25:53;18.80;99.90
7588;DHT22;3835;48.850;8.938;2023-08-30T11:28:23;18.60;99.90
7588;DHT22;3835;48.850;8.938;2023-08-30T11:30:50;18.60;99.90
7588;DHT22;3835;48.850;8.938;2023-08-30T11:33:17;18.40;99.90
7588;DHT22;3835;48.850;8.938;2023-08-30T11:35:49;18.10;99.90
7588;DHT22;3835;48.850;8.938;2023-08-30T11:38:16;18.20;99.90
7588;DHT22;3835;48.850;8.938;2023-08-30T11:40:44;18.30;99.90
7588;DHT22;3835;48.850;8.938;2023-08-30T11:43:11;18.20;99.90
7588;DHT22;3835;48.850;8.938;2023-08-30T11:45:38;18.10;99.90
7588;DHT22;3835;48.850;8.938;2023-08-30T11:48:05;18.10;99.90
7588;DHT22;3835;48.850;8.938;2023-08-30T11:50:31;18.20;99.90
7588;DHT22;3835;48.850;8.938;2023-08-30T11:53:00;18.40;99.90
7588;DHT22;3835;48.850;8.938;2023-08-30T11:55:28;18.20;99.90
7588;DHT22;3835;48.850;8.938;2023-08-30T11:57:55;18.20;99.90
7588;DHT22;3835;48.850;8.938;2023-08-30T12:00:22;18.30;99.90
7588;DHT22;3835;48.850;8.938;2023-08-30T12:02:49;18.40;99.90
7588;DHT22;3835;48.850;8.938;2023-08-30T12:05:16;18.30;99.90
7588;DHT22;3835;48.850;8.938;2023-08-30T12:07:45;18.20;99.90
7588;DHT22;3835;48.850;8.938;2023-08-30T12:10:13;18.40;99.90
7588;DHT22;3835;48.850;8.938;2023-08-30T12:12:45;18.80;99.90
7588;DHT22;3835;48.850;8.938;2023-08-30T12:15:12;18.80;99.90
7588;DHT22;3835;48.850;8.938;2023-08-30T12:17:40;18.50;99.90
7588;DHT22;3835;48.850;8.938;2023-08-30T12:20:14;18.40;99.90
7588;DHT22;3835;48.850;8.938;2023-08-30T12:22:41;18.30;99.90
7588;DHT22;3835;48.850;8.938;2023-08-30T12:25:20;18.40;99.90
7588;DHT22;3835;48.850;8.938;2023-08-30T12:27:49;18.60;99.90
7588;DHT22;3835;48.850;8.938;2023-08-30T12:30:16;18.80;99.90
7588;DHT22;3835;48.850;8.938;2023-08-30T12:32:43;19.30;99.90
7588;DHT22;3835;48.850;8.938;2023-08-30T12:35:10;19.20;99.90
7588;DHT22;3835;48.850;8.938;2023-08-30T12:37:37;18.90;99.90
7588;DHT22;3835;48.850;8.938;2023-08-30T12:40:05;18.80;99.90
7588;DHT22;3835;48.850;8.938;2023-08-30T12:42:33;18.60;99.90
7588;DHT22;3835;48.850;8.938;2023-08-30T12:45:00;18.30;99.90
7588;DHT22;3835;48.850;8.938;2023-08-30T12:47:28;18.50;99.90
7588;DHT22;3835;48.850;8.938;2023-08-30T12:49:55;19.10;99.90
7588;DHT22;3835;48.850;8.938;2023-08-30T12:52:22;19.50;99.90
7588;DHT22;3835;48.850;8.938;2023-08-30T12:54:49;19.80;99.90
7588;DHT22;3835;48.850;8.938;2023-08-30T12:57:17;19.90;99.90
7588;DHT22;3835;48.850;8.938;2023-08-30T12:59:45;19.90;99.90
7588;DHT22;3835;48.850;8.938;2023-08-30T13:02:12;20.00;99.90
7588;DHT22;3835;48.850;8.938;2023-08-30T13:04:39;20.10;99.90
7588;DHT22;3835;48.850;8.938;2023-08-30T13:07:06;20.20;99.90
7588;DHT22;3835;48.850;8.938;2023-08-30T13:09:32;20.10;99.90
7588;DHT22;3835;48.850;8.938;2023-08-30T13:11:59;20.10;99.90
7588;DHT22;3835;48.850;8.938;2023-08-30T13:14:26;20.40;99.90
7588;DHT22;3835;48.850;8.938;2023-08-30T13:16:54;20.40;99.90
7588;DHT22;3835;48.850;8.938;2023-08-30T13:19:21;20.40;99.90
7588;DHT22;3835;48.850;8.938;2023-08-30T13:21:48;20.40;99.90
7588;DHT22;3835;48.850;8.938;2023-08-30T13:24:15;20.40;99.90
7588;DHT22;3835;48.850;8.938;2023-08-30T13:26:42;20.50;99.90
7588;DHT22;3835;48.850;8.938;2023-08-30T13:29:10;20.60;99.90
7588;DHT22;3835;48.850;8.938;2023-08-30T13:31:37;20.80;99.90
7588;DHT22;3835;48.850;8.938;2023-08-30T13:34:05;21.00;99.90
7588;DHT22;3835;48.850;8.938;2023-08-30T13:36:32;20.90;99.90
7588;DHT22;3835;48.850;8.938;2023-08-30T13:38:59;20.80;99.90
7588;DHT22;3835;48.850;8.938;2023-08-30T13:41:25;20.60;99.90
7588;DHT22;3835;48.850;8.938;2023-08-30T13:43:53;20.50;99.90
7588;DHT22;3835;48.850;8.938;2023-08-30T13:46:19;20.50;99.90
7588;DHT22;3835;48.850;8.938;2023-08-30T13:48:46;20.20;99.90
7588;DHT22;3835;48.850;8.938;2023-08-30T13:51:21;19.90;99.90
7588;DHT22;3835;48.850;8.938;2023-08-30T13:53:48;19.50;99.90
7588;DHT22;3835;48.850;8.938;2023-08-30T13:56:15;19.20;99.90
7588;DHT22;3835;48.850;8.938;2023-08-30T13:58:42;19.00;99.90
7588;DHT22;3835;48.850;8.938;2023-08-30T14:01:08;19.10;99.90
7588;DHT22;3835;48.850;8.938;2023-08-30T14:03:35;19.30;99.90
7588;DHT22;3835;48.850;8.938;2023-08-30T14:06:02;19.40;99.90
7588;DHT22;3835;48.850;8.938;2023-08-30T14:08:31;19.30;99.90
7588;DHT22;3835;48.850;8.938;2023-08-30T14:10:58;19.50;99.90
7588;DHT22;3835;48.850;8.938;2023-08-30T14:13:24;19.50;99.90
7588;DHT22;3835;48.850;8.938;2023-08-30T14:15:53;19.60;99.90
7588;DHT22;3835;48.850;8.938;2023-08-30T14:18:20;19.40;99.90
7588;DHT22;3835;48.850;8.938;2023-08-30T14:20:47;19.30;99.90
7588;DHT22;3835;48.850;8.938;2023-08-30T14:23:14;19.60;99.90
7588;DHT22;3835;48.850;8.938;2023-08-30T14:25:42;19.50;99.90
7588;DHT22;3835;48.850;8.938;2023-08-30T14:28:09;19.40;99.90
7588;DHT22;3835;48.850;8.938;2023-08-30T14:30:35;19.50;99.90
7588;DHT22;3835;48.850;8.938;2023-08-30T14:33:03;19.40;99.90
7588;DHT22;3835;48.850;8.938;2023-08-30T14:35:30;19.30;99.90
7588;DHT22;3835;48.850;8.938;2023-08-30T14:37:57;19.40;99.90
7588;DHT22;3835;48.850;8.938;2023-08-30T14:40:23;19.40;99.90
7588;DHT22;3835;48.850;8.938;2023-08-30T14:42:53;19.20;99.90
7588;DHT22;3835;48.850;8.938;2023-08-30T14:45:22;19.30;99.90
7588;DHT22;3835;48.850;8.938;2023-08-30T14:47:50;19.30;99.90
7588;DHT22;3835;48.850;8.938;2023-08-30T14:50:16;19.30;99.90
7588;DHT22;3835;48.850;8.938;2023-08-30T14:52:44;19.00;99.90
7588;DHT22;3835;48.850;8.938;2023-08-30T14:55:12;18.60;99.90
7588;DHT22;3835;48.850;8.938;2023-08-30T14:57:39;18.40;99.90
7588;DHT22;3835;48.850;8.938;2023-08-30T15:00:07;18.40;99.90
7588;DHT22;3835;48.850;8.938;2023-08-30T15:02:34;18.60;99.90
7588;DHT22;3835;48.850;8.938;2023-08-30T15:05:01;19.00;99.90
7588;DHT22;3835;48.850;8.938;2023-08-30T15:07:28;19.10;99.90
7588;DHT22;3835;48.850;8.938;2023-08-30T15:09:55;19.30;99.90
7588;DHT22;3835;48.850;8.938;2023-08-30T15:12:21;19.10;99.90
7588;DHT22;3835;48.850;8.938;2023-08-30T15:14:48;19.00;99.90
7588;DHT22;3835;48.850;8.938;2023-08-30T15:17:16;19.00;99.90
7588;DHT22;3835;48.850;8.938;2023-08-30T15:19:43;18.90;99.90
7588;DHT22;3835;48.850;8.938;2023-08-30T15:22:10;18.70;99.90
7588;DHT22;3835;48.850;8.938;2023-08-30T15:24:37;18.60;99.90
7588;DHT22;3835;48.850;8.938;2023-08-30T15:27:04;18.60;99.90
7588;DHT22;3835;48.850;8.938;2023-08-30T15:29:31;18.60;99.90
7588;DHT22;3835;48.850;8.938;2023-08-30T15:31:59;18.80;99.90
7588;DHT22;3835;48.850;8.938;2023-08-30T15:34:29;19.00;99.90
7588;DHT22;3835;48.850;8.938;2023-08-30T15:36:56;19.00;99.90
7588;DHT22;3835;48.850;8.938;2023-08-30T15:39:25;19.00;99.90
7588;DHT22;3835;48.850;8.938;2023-08-30T15:41:52;19.00;99.90
7588;DHT22;3835;48.850;8.938;2023-08-30T15:44:19;19.10;99.90
7588;DHT22;3835;48.850;8.938;2023-08-30T15:46:45;19.00;99.90
7588;DHT22;3835;48.850;8.938;2023-08-30T15:49:12;18.90;99.90
7588;DHT22;3835;48.850;8.938;2023-08-30T15:51:41;18.90;99.90
7588;DHT22;3835;48.850;8.938;2023-08-30T15:54:07;18.90;99.90
7588;DHT22;3835;48.850;8.938;2023-08-30T15:56:35;18.90;99.90
7588;DHT22;3835;48.850;8.938;2023-08-30T15:59:03;18.90;99.90
7588;DHT22;3835;48.850;8.938;2023-08-30T16:01:30;18.80;99.90
7588;DHT22;3835;48.850;8.938;2023-08-30T16:03:56;18.60;99.90
7588;DHT22;3835;48.850;8.938;2023-08-30T16:06:23;18.60;99.90